createdAt,value
2023-04-09T00:00:06.107Z,145.40
2023-04-09T00:01:06.103Z,144.95
2023-04-09T00:02:06.221Z,146.41
2023-04-09T00:03:06.268Z,147.40
2023-04-09T00:04:06.356Z,144.45
2023-04-09T00:05:06.340Z,147.35
2023-04-09T00:06:06.447Z,147.30
2023-04-09T00:07:06.488Z,145.19
2023-04-09T00:08:06.566Z,144.22
2023-04-09T00:09:06.598Z,143.52
2023-04-09T00:10:06.746Z,143.83
2023-04-09T00:11:06.817Z,143.64
2023-04-09T00:12:06.818Z,144.64
2023-04-09T00:13:06.869Z,142.31
2023-04-09T00:14:06.956Z,140.79
2023-04-09T00:15:08.478Z,141.21
2023-04-09T00:16:07.051Z,141.33
2023-04-09T00:17:07.008Z,141.45
2023-04-09T00:18:07.014Z,141.59
2023-04-09T00:19:07.030Z,141.50
2023-04-09T00:20:07.027Z,140.83
2023-04-09T00:21:07.162Z,142.69
2023-04-09T00:22:07.014Z,141.79
2023-04-09T00:23:07.039Z,143.05
2023-04-09T00:24:07.026Z,139.23
2023-04-09T00:25:07.043Z,139.19
2023-04-09T00:26:07.030Z,140.36
2023-04-09T00:27:07.033Z,141.96
2023-04-09T00:28:07.033Z,140.73
2023-04-09T00:29:07.034Z,140.54
2023-04-09T00:30:07.038Z,138.93
2023-04-09T00:31:07.044Z,139.85
2023-04-09T00:32:07.068Z,139.95
2023-04-09T00:33:07.087Z,139.85
2023-04-09T00:34:07.090Z,138.65
2023-04-09T00:35:07.074Z,138.72
2023-04-09T00:36:07.092Z,138.76
2023-04-09T00:37:07.048Z,138.23
2023-04-09T00:38:07.054Z,138.36
2023-04-09T00:39:07.054Z,135.22
2023-04-09T00:40:07.080Z,138.27
2023-04-09T00:41:07.057Z,137.54
2023-04-09T00:42:07.057Z,136.31
2023-04-09T00:43:07.041Z,136.99
2023-04-09T00:44:07.082Z,137.29
2023-04-09T00:45:07.158Z,139.23
2023-04-09T00:46:07.278Z,138.04
2023-04-09T00:47:07.275Z,138.49
2023-04-09T00:48:07.285Z,138.61
2023-04-09T00:49:07.304Z,139.01
2023-04-09T00:50:07.293Z,139.17
2023-04-09T00:51:07.282Z,141.65
2023-04-09T00:52:07.302Z,142.82
2023-04-09T00:53:07.323Z,138.68
2023-04-09T00:54:07.311Z,139.25
2023-04-09T00:55:07.306Z,140.43
2023-04-09T00:56:07.288Z,140.08
2023-04-09T00:57:07.298Z,144.00
2023-04-09T00:58:07.311Z,145.57
2023-04-09T00:59:07.298Z,142.04
2023-04-09T01:00:07.310Z,146.01
2023-04-09T01:01:07.357Z,147.53
2023-04-09T01:02:07.440Z,146.27
2023-04-09T01:03:07.576Z,140.39
2023-04-09T01:04:07.528Z,142.78
2023-04-09T01:05:07.576Z,144.85
2023-04-09T01:06:07.589Z,146.28
2023-04-09T01:07:07.633Z,147.06
2023-04-09T01:08:07.677Z,149.41
2023-04-09T01:09:07.727Z,146.84
2023-04-09T01:10:07.799Z,148.99
2023-04-09T01:11:07.850Z,146.34
2023-04-09T01:12:07.936Z,149.16
2023-04-09T01:13:08.000Z,147.07
2023-04-09T01:14:08.047Z,151.43
2023-04-09T01:15:08.122Z,150.26
2023-04-09T01:16:08.218Z,149.41
2023-04-09T01:17:08.255Z,150.62
2023-04-09T01:18:08.337Z,149.20
2023-04-09T01:19:08.395Z,152.10
2023-04-09T01:20:08.518Z,148.89
2023-04-09T01:21:08.574Z,148.56
2023-04-09T01:22:08.684Z,150.56
2023-04-09T01:23:08.709Z,148.15
2023-04-09T01:24:08.782Z,151.08
2023-04-09T01:25:08.868Z,150.38
2023-04-09T01:26:08.919Z,150.53
2023-04-09T01:27:09.012Z,150.45
2023-04-09T01:28:09.038Z,150.37
2023-04-09T01:29:09.096Z,148.24
2023-04-09T01:30:09.172Z,150.89
2023-04-09T01:31:09.342Z,151.68
2023-04-09T01:32:09.306Z,148.66
2023-04-09T01:33:09.342Z,152.61
2023-04-09T01:34:09.440Z,149.39
2023-04-09T01:35:09.481Z,152.41
2023-04-09T01:36:09.601Z,149.92
2023-04-09T01:37:09.639Z,150.78
2023-04-09T01:38:09.689Z,151.76
2023-04-09T01:39:09.742Z,152.50
2023-04-09T01:40:09.797Z,154.21
2023-04-09T01:41:09.859Z,148.74
2023-04-09T01:42:09.927Z,152.00
2023-04-09T01:43:10.001Z,148.29
2023-04-09T01:44:10.046Z,150.82
2023-04-09T01:45:10.103Z,151.00
2023-04-09T01:46:10.144Z,153.45
2023-04-09T01:47:10.191Z,150.63
2023-04-09T01:48:10.139Z,150.12
2023-04-09T01:49:10.149Z,147.68
2023-04-09T01:50:10.168Z,147.42
2023-04-09T01:51:10.180Z,150.34
2023-04-09T01:52:10.218Z,150.43
2023-04-09T01:53:10.232Z,150.48
2023-04-09T01:54:10.258Z,149.74
2023-04-09T01:55:10.302Z,147.41
2023-04-09T01:56:10.362Z,148.41
2023-04-09T01:57:10.398Z,147.51
2023-04-09T01:58:10.447Z,147.22
2023-04-09T01:59:10.474Z,146.97
2023-04-09T02:00:10.533Z,146.91
2023-04-09T02:01:10.604Z,142.39
2023-04-09T02:02:10.736Z,145.12
2023-04-09T02:03:10.780Z,144.02
2023-04-09T02:04:10.785Z,141.74
2023-04-09T02:05:10.844Z,142.50
2023-04-09T02:06:10.900Z,141.79
2023-04-09T02:07:10.957Z,143.39
2023-04-09T02:08:11.039Z,144.38
2023-04-09T02:09:11.067Z,144.12
2023-04-09T02:10:11.146Z,141.58
2023-04-09T02:11:11.223Z,139.18
2023-04-09T02:12:11.288Z,143.71
2023-04-09T02:13:11.354Z,143.46
2023-04-09T02:14:11.540Z,140.67
2023-04-09T02:15:11.485Z,142.60
2023-04-09T02:16:11.602Z,141.34
2023-04-09T02:17:11.647Z,141.79
2023-04-09T02:18:11.710Z,141.25
2023-04-09T02:19:11.782Z,139.19
2023-04-09T02:20:11.823Z,140.13
2023-04-09T02:21:11.936Z,140.45
2023-04-09T02:22:11.986Z,142.58
2023-04-09T02:23:12.052Z,139.18
2023-04-09T02:24:12.150Z,139.57
2023-04-09T02:25:12.211Z,138.44
2023-04-09T02:26:12.300Z,137.72
2023-04-09T02:27:12.385Z,135.85
2023-04-09T02:28:12.439Z,136.92
2023-04-09T02:29:12.475Z,137.45
2023-04-09T02:30:12.518Z,134.68
2023-04-09T02:31:12.645Z,134.90
2023-04-09T02:32:12.628Z,134.01
2023-04-09T02:33:12.722Z,136.47
2023-04-09T02:34:12.785Z,131.50
2023-04-09T02:35:12.884Z,132.33
2023-04-09T02:36:13.008Z,133.86
2023-04-09T02:37:13.009Z,135.44
2023-04-09T02:38:13.074Z,135.86
2023-04-09T02:39:13.142Z,135.98
2023-04-09T02:40:13.214Z,135.54
2023-04-09T02:41:13.251Z,133.44
2023-04-09T02:42:13.273Z,134.97
2023-04-09T02:43:13.310Z,135.32
2023-04-09T02:44:13.314Z,132.38
2023-04-09T02:45:13.379Z,133.18
2023-04-09T02:46:13.469Z,128.59
2023-04-09T02:47:13.433Z,130.26
2023-04-09T02:48:13.464Z,129.62
2023-04-09T02:49:13.513Z,130.19
2023-04-09T02:50:13.538Z,128.67
2023-04-09T02:51:13.608Z,130.71
2023-04-09T02:52:13.633Z,129.10
2023-04-09T02:53:13.669Z,128.88
2023-04-09T02:54:13.705Z,129.70
2023-04-09T02:55:13.796Z,127.43
2023-04-09T02:56:13.840Z,128.39
2023-04-09T02:57:13.846Z,128.14
2023-04-09T02:58:13.887Z,126.32
2023-04-09T02:59:13.898Z,127.80
2023-04-09T03:00:13.912Z,127.60
2023-04-09T03:01:13.948Z,128.63
2023-04-09T03:02:14.066Z,129.87
2023-04-09T03:03:14.102Z,125.82
2023-04-09T03:04:14.042Z,129.59
2023-04-09T03:05:13.964Z,127.57
2023-04-09T03:06:14.005Z,127.38
2023-04-09T03:07:14.017Z,130.24
2023-04-09T03:08:14.037Z,130.75
2023-04-09T03:09:14.038Z,128.72
2023-04-09T03:10:14.070Z,128.25
2023-04-09T03:11:14.086Z,126.73
2023-04-09T03:12:14.126Z,123.87
2023-04-09T03:13:14.184Z,131.06
2023-04-09T03:14:14.168Z,127.88
2023-04-09T03:15:14.218Z,126.72
2023-04-09T03:16:14.267Z,128.52
2023-04-09T03:17:14.291Z,130.86
2023-04-09T03:18:14.303Z,133.49
2023-04-09T03:19:14.323Z,138.37
2023-04-09T03:20:14.359Z,137.03
2023-04-09T03:21:15.157Z,136.42
2023-04-09T03:22:14.401Z,140.64
2023-04-09T03:23:14.429Z,143.93
2023-04-09T03:24:14.488Z,142.26
2023-04-09T03:25:14.505Z,144.07
2023-04-09T03:26:14.545Z,147.75
2023-04-09T03:27:14.562Z,147.92
2023-04-09T03:28:14.593Z,150.54
2023-04-09T03:29:14.623Z,149.53
2023-04-09T03:30:14.654Z,153.11
2023-04-09T03:31:14.699Z,154.53
2023-04-09T03:32:14.804Z,155.74
2023-04-09T03:33:14.689Z,159.28
2023-04-09T03:34:14.732Z,159.28
2023-04-09T03:35:14.776Z,158.76
2023-04-09T03:36:14.801Z,163.13
2023-04-09T03:37:14.851Z,164.47
2023-04-09T03:38:14.902Z,166.18
2023-04-09T03:39:14.951Z,165.69
2023-04-09T03:40:15.012Z,166.10
2023-04-09T03:41:15.112Z,166.67
2023-04-09T03:42:15.079Z,168.47
2023-04-09T03:43:15.114Z,167.11
2023-04-09T03:44:15.155Z,171.13
2023-04-09T03:45:15.182Z,171.42
2023-04-09T03:46:15.243Z,169.53
2023-04-09T03:47:15.260Z,173.76
2023-04-09T03:48:15.258Z,168.74
2023-04-09T03:49:15.303Z,173.82
2023-04-09T03:50:15.370Z,175.67
2023-04-09T03:51:15.445Z,177.20
2023-04-09T03:52:15.500Z,177.27
2023-04-09T03:53:15.558Z,179.63
2023-04-09T03:54:15.628Z,177.72
2023-04-09T03:55:15.681Z,180.68
2023-04-09T03:56:15.775Z,181.75
2023-04-09T03:57:15.822Z,181.21
2023-04-09T03:58:15.883Z,183.77
2023-04-09T03:59:15.953Z,182.10
2023-04-09T04:00:16.021Z,183.75
2023-04-09T04:01:16.096Z,183.99
2023-04-09T04:02:16.238Z,183.19
2023-04-09T04:03:16.494Z,184.35
2023-04-09T04:04:16.254Z,184.57
2023-04-09T04:05:16.214Z,184.74
2023-04-09T04:06:16.205Z,184.63
2023-04-09T04:07:16.227Z,184.77
2023-04-09T04:08:16.228Z,185.70
2023-04-09T04:09:16.204Z,186.77
2023-04-09T04:10:16.215Z,188.67
2023-04-09T04:11:16.221Z,191.69
2023-04-09T04:12:16.215Z,193.21
2023-04-09T04:13:16.314Z,190.74
2023-04-09T04:14:16.233Z,188.85
2023-04-09T04:15:16.252Z,190.82
2023-04-09T04:16:16.385Z,188.58
2023-04-09T04:17:16.417Z,191.66
2023-04-09T04:18:16.478Z,190.53
2023-04-09T04:19:16.521Z,190.67
2023-04-09T04:20:16.511Z,190.97
2023-04-09T04:21:16.506Z,191.09
2023-04-09T04:22:16.546Z,191.69
2023-04-09T04:23:16.498Z,191.72
2023-04-09T04:24:16.504Z,192.24
2023-04-09T04:25:16.514Z,194.37
2023-04-09T04:26:16.509Z,192.88
2023-04-09T04:27:16.544Z,192.80
2023-04-09T04:28:16.578Z,192.59
2023-04-09T04:29:16.625Z,193.01
2023-04-09T04:30:16.682Z,189.63
2023-04-09T04:31:16.752Z,192.34
2023-04-09T04:32:16.802Z,191.61
2023-04-09T04:33:16.798Z,191.81
2023-04-09T04:34:16.795Z,192.49
2023-04-09T04:35:16.869Z,193.56
2023-04-09T04:36:16.806Z,193.29
2023-04-09T04:37:16.801Z,195.25
2023-04-09T04:38:16.805Z,195.55
2023-04-09T04:39:16.842Z,194.39
2023-04-09T04:40:16.806Z,193.73
2023-04-09T04:41:16.809Z,196.30
2023-04-09T04:42:16.858Z,196.52
2023-04-09T04:43:16.912Z,194.28
2023-04-09T04:44:16.987Z,195.86
2023-04-09T04:45:17.061Z,196.69
2023-04-09T04:46:17.134Z,195.62
2023-04-09T04:47:17.189Z,196.72
2023-04-09T04:48:17.265Z,195.91
2023-04-09T04:49:17.306Z,193.88
2023-04-09T04:50:17.402Z,196.49
2023-04-09T04:51:17.442Z,195.41
2023-04-09T04:52:17.911Z,196.59
2023-04-09T04:53:17.625Z,198.37
2023-04-09T04:54:17.672Z,199.17
2023-04-09T04:55:17.765Z,197.94
2023-04-09T04:56:17.821Z,196.79
2023-04-09T04:57:17.897Z,198.38
2023-04-09T04:58:17.979Z,199.96
2023-04-09T04:59:18.014Z,198.89
2023-04-09T05:00:18.106Z,197.93
2023-04-09T05:01:18.248Z,198.07
2023-04-09T05:02:18.419Z,200.34
2023-04-09T05:03:18.445Z,200.85
2023-04-09T05:04:18.406Z,200.76
2023-04-09T05:05:18.488Z,200.65
2023-04-09T05:06:18.544Z,199.88
2023-04-09T05:07:18.626Z,197.31
2023-04-09T05:08:18.693Z,201.67
2023-04-09T05:09:20.484Z,198.53
2023-04-09T05:10:18.772Z,203.39
2023-04-09T05:11:18.779Z,201.33
2023-04-09T05:12:18.832Z,199.49
2023-04-09T05:13:18.799Z,198.15
2023-04-09T05:14:18.807Z,201.04
2023-04-09T05:15:18.813Z,200.19
2023-04-09T05:16:18.880Z,199.37
2023-04-09T05:17:18.866Z,200.55
2023-04-09T05:18:18.847Z,199.92
2023-04-09T05:19:18.849Z,203.36
2023-04-09T05:20:18.870Z,198.67
2023-04-09T05:21:18.888Z,202.39
2023-04-09T05:22:18.882Z,202.87
2023-04-09T05:23:18.897Z,202.61
2023-04-09T05:24:18.914Z,202.21
2023-04-09T05:25:18.928Z,200.99
2023-04-09T05:26:18.915Z,203.26
2023-04-09T05:27:18.970Z,200.42
2023-04-09T05:28:18.951Z,202.62
2023-04-09T05:29:18.966Z,201.75
2023-04-09T05:30:18.954Z,202.91
2023-04-09T05:31:19.176Z,203.55
2023-04-09T05:32:19.017Z,203.10
2023-04-09T05:33:18.977Z,200.97
2023-04-09T05:34:18.962Z,202.25
2023-04-09T05:35:18.985Z,201.75
2023-04-09T05:36:18.976Z,201.33
2023-04-09T05:37:19.001Z,201.73
2023-04-09T05:38:19.002Z,202.82
2023-04-09T05:39:19.012Z,203.38
2023-04-09T05:40:19.011Z,201.74
2023-04-09T05:41:19.019Z,200.76
2023-04-09T05:42:19.030Z,203.68
2023-04-09T05:43:19.026Z,201.23
2023-04-09T05:44:19.041Z,200.95
2023-04-09T05:45:19.044Z,204.73
2023-04-09T05:46:19.115Z,200.81
2023-04-09T05:47:19.075Z,201.63
2023-04-09T05:48:19.061Z,202.73
2023-04-09T05:49:19.098Z,203.45
2023-04-09T05:50:19.076Z,199.55
2023-04-09T05:51:19.106Z,201.19
2023-04-09T05:52:19.109Z,201.78
2023-04-09T05:53:19.088Z,202.26
2023-04-09T05:54:19.094Z,200.64
2023-04-09T05:55:19.098Z,197.58
2023-04-09T05:56:19.093Z,197.53
2023-04-09T05:57:19.123Z,201.39
2023-04-09T05:58:19.102Z,201.60
2023-04-09T05:59:19.130Z,201.36
2023-04-09T06:00:19.144Z,200.32
2023-04-09T06:01:19.188Z,201.46
2023-04-09T06:02:19.321Z,201.66
2023-04-09T06:03:19.506Z,202.18
2023-04-09T06:04:19.661Z,204.12
2023-04-09T06:05:19.380Z,201.11
2023-04-09T06:06:19.398Z,200.51
2023-04-09T06:07:19.414Z,202.10
2023-04-09T06:08:19.449Z,197.94
2023-04-09T06:09:19.478Z,201.18
2023-04-09T06:10:19.568Z,198.61
2023-04-09T06:11:19.545Z,202.19
2023-04-09T06:12:19.584Z,201.37
2023-04-09T06:13:19.661Z,201.42
2023-04-09T06:14:19.708Z,199.04
2023-04-09T06:15:19.773Z,199.35
2023-04-09T06:16:19.847Z,196.94
2023-04-09T06:17:19.948Z,195.57
2023-04-09T06:18:19.960Z,193.74
2023-04-09T06:19:19.949Z,193.54
2023-04-09T06:20:19.962Z,186.99
2023-04-09T06:21:19.954Z,184.49
2023-04-09T06:22:19.961Z,183.41
2023-04-09T06:23:19.960Z,181.43
2023-04-09T06:24:19.950Z,178.97
2023-04-09T06:25:19.959Z,179.20
2023-04-09T06:26:19.960Z,174.74
2023-04-09T06:27:19.957Z,171.26
2023-04-09T06:28:19.955Z,171.39
2023-04-09T06:29:20.363Z,171.16
2023-04-09T06:30:19.974Z,171.73
2023-04-09T06:31:19.990Z,163.54
2023-04-09T06:32:19.968Z,159.68
2023-04-09T06:33:20.316Z,163.63
2023-04-09T06:34:20.000Z,161.14
2023-04-09T06:35:20.002Z,158.35
2023-04-09T06:36:19.998Z,155.16
2023-04-09T06:37:20.000Z,154.12
2023-04-09T06:38:19.995Z,154.92
2023-04-09T06:39:20.009Z,152.71
2023-04-09T06:40:22.824Z,152.92
2023-04-09T06:41:20.044Z,153.47
2023-04-09T06:42:20.060Z,147.13
2023-04-09T06:43:20.061Z,148.93
2023-04-09T06:44:20.050Z,147.04
2023-04-09T06:45:20.032Z,148.22
2023-04-09T06:46:20.128Z,146.50
2023-04-09T06:47:20.045Z,145.44
2023-04-09T06:48:20.203Z,142.63
2023-04-09T06:49:20.043Z,143.55
2023-04-09T06:50:20.032Z,141.20
2023-04-09T06:51:20.037Z,137.15
2023-04-09T06:52:20.036Z,138.65
2023-04-09T06:53:20.130Z,135.62
2023-04-09T06:54:20.119Z,137.52
2023-04-09T06:55:20.037Z,136.14
2023-04-09T06:56:20.045Z,133.45
2023-04-09T06:57:20.051Z,132.50
2023-04-09T06:58:20.041Z,129.15
2023-04-09T06:59:20.041Z,130.59
2023-04-09T07:00:20.062Z,127.73
2023-04-09T07:01:20.047Z,130.79
2023-04-09T07:02:20.215Z,130.98
2023-04-09T07:03:20.282Z,129.24
2023-04-09T07:04:20.228Z,131.03
2023-04-09T07:05:20.060Z,132.91
2023-04-09T07:06:20.082Z,132.83
2023-04-09T07:07:20.071Z,135.04
2023-04-09T07:08:20.081Z,136.98
2023-04-09T07:09:20.062Z,138.80
2023-04-09T07:10:20.063Z,140.99
2023-04-09T07:11:20.069Z,141.61
2023-04-09T07:12:20.064Z,141.34
2023-04-09T07:13:20.076Z,141.72
2023-04-09T07:14:20.124Z,142.70
2023-04-09T07:15:20.059Z,144.08
2023-04-09T07:16:20.117Z,147.76
2023-04-09T07:17:20.064Z,146.75
2023-04-09T07:18:20.069Z,151.41
2023-04-09T07:19:20.077Z,150.61
2023-04-09T07:20:20.068Z,153.24
2023-04-09T07:21:20.070Z,154.15
2023-04-09T07:22:20.093Z,155.29
2023-04-09T07:23:20.115Z,156.84
2023-04-09T07:24:20.159Z,153.62
2023-04-09T07:25:20.243Z,159.82
2023-04-09T07:26:20.300Z,158.07
2023-04-09T07:27:20.372Z,159.89
2023-04-09T07:28:20.466Z,158.56
2023-04-09T07:29:20.529Z,160.82
2023-04-09T07:30:20.604Z,161.60
2023-04-09T07:31:20.688Z,160.63
2023-04-09T07:32:20.772Z,162.67
2023-04-09T07:33:20.830Z,159.03
2023-04-09T07:34:21.031Z,162.75
2023-04-09T07:35:20.947Z,162.54
2023-04-09T07:36:21.073Z,164.37
2023-04-09T07:37:21.085Z,163.49
2023-04-09T07:38:21.160Z,163.96
2023-04-09T07:39:21.240Z,163.79
2023-04-09T07:40:21.305Z,164.33
2023-04-09T07:41:21.393Z,162.10
2023-04-09T07:42:21.439Z,167.43
2023-04-09T07:43:22.612Z,166.07
2023-04-09T07:44:21.589Z,164.47
2023-04-09T07:45:21.662Z,167.99
2023-04-09T07:46:21.777Z,166.25
2023-04-09T07:47:21.786Z,167.96
2023-04-09T07:48:21.836Z,168.51
2023-04-09T07:49:21.907Z,169.79
2023-04-09T07:50:21.976Z,168.56
2023-04-09T07:51:22.073Z,166.43
2023-04-09T07:52:22.129Z,167.30
2023-04-09T07:53:22.182Z,167.33
2023-04-09T07:54:22.270Z,171.19
2023-04-09T07:55:22.320Z,169.41
2023-04-09T07:56:22.395Z,172.27
2023-04-09T07:57:22.455Z,171.40
2023-04-09T07:58:22.525Z,170.95
2023-04-09T07:59:22.593Z,169.98
2023-04-09T08:00:22.650Z,171.09
2023-04-09T08:01:22.695Z,171.83
2023-04-09T08:02:23.066Z,171.40
2023-04-09T08:03:22.993Z,170.04
2023-04-09T08:04:22.967Z,174.81
2023-04-09T08:05:22.871Z,171.99
2023-04-09T08:06:22.919Z,173.47
2023-04-09T08:07:22.946Z,173.57
2023-04-09T08:08:23.014Z,174.24
2023-04-09T08:09:23.077Z,174.86
2023-04-09T08:10:23.127Z,175.03
2023-04-09T08:11:23.164Z,177.77
2023-04-09T08:12:23.197Z,176.59
2023-04-09T08:13:23.204Z,177.64
2023-04-09T08:14:23.255Z,177.35
2023-04-09T08:15:23.301Z,179.83
2023-04-09T08:16:23.416Z,181.70
2023-04-09T08:17:23.465Z,179.71
2023-04-09T08:18:23.516Z,178.97
2023-04-09T08:19:23.582Z,180.89
2023-04-09T08:20:23.681Z,180.42
2023-04-09T08:21:23.691Z,181.26
2023-04-09T08:22:23.769Z,182.06
2023-04-09T08:23:23.840Z,177.98
2023-04-09T08:24:23.907Z,180.21
2023-04-09T08:25:23.962Z,177.72
2023-04-09T08:26:24.039Z,177.49
2023-04-09T08:27:24.115Z,178.81
2023-04-09T08:28:24.172Z,178.80
2023-04-09T08:29:24.237Z,185.25
2023-04-09T08:30:24.289Z,181.42
2023-04-09T08:31:24.367Z,179.59
2023-04-09T08:32:24.418Z,181.62
2023-04-09T08:33:24.506Z,184.91
2023-04-09T08:34:24.570Z,181.73
2023-04-09T08:35:24.703Z,183.27
2023-04-09T08:36:24.740Z,184.75
2023-04-09T08:37:24.767Z,181.65
2023-04-09T08:38:24.833Z,181.14
2023-04-09T08:39:24.910Z,175.20
2023-04-09T08:40:24.982Z,176.95
2023-04-09T08:41:25.021Z,171.49
2023-04-09T08:42:25.091Z,170.99
2023-04-09T08:43:33.478Z,170.05
2023-04-09T08:44:26.161Z,170.11
2023-04-09T08:45:25.164Z,167.70
2023-04-09T08:46:25.233Z,163.10
2023-04-09T08:47:25.146Z,159.84
2023-04-09T08:48:25.219Z,157.48
2023-04-09T08:49:25.124Z,156.35
2023-04-09T08:50:25.125Z,153.98
2023-04-09T08:51:25.121Z,154.54
2023-04-09T08:52:25.129Z,151.29
2023-04-09T08:53:25.115Z,148.66
2023-04-09T08:54:25.106Z,147.09
2023-04-09T08:55:25.092Z,142.18
2023-04-09T08:56:25.110Z,141.61
2023-04-09T08:57:25.142Z,138.33
2023-04-09T08:58:25.173Z,140.89
2023-04-09T08:59:25.194Z,134.89
2023-04-09T09:00:25.222Z,129.08
2023-04-09T09:01:25.290Z,126.75
2023-04-09T09:02:25.356Z,118.01
2023-04-09T09:03:25.375Z,124.25
2023-04-09T09:04:25.458Z,125.73
2023-04-09T09:05:25.346Z,127.97
2023-04-09T09:06:25.368Z,119.35
2023-04-09T09:07:25.414Z,121.16
2023-04-09T09:08:25.444Z,124.72
2023-04-09T09:09:25.471Z,122.32
2023-04-09T09:10:25.512Z,114.91
2023-04-09T09:11:25.528Z,116.05
2023-04-09T09:12:26.030Z,112.08
2023-04-09T09:13:25.592Z,117.26
2023-04-09T09:14:25.617Z,113.50
2023-04-09T09:15:25.633Z,108.58
2023-04-09T09:16:25.664Z,99.70
2023-04-09T09:17:25.726Z,101.47
2023-04-09T09:18:25.681Z,107.27
2023-04-09T09:19:25.717Z,100.74
2023-04-09T09:20:25.728Z,103.48
2023-04-09T09:21:25.735Z,98.65
2023-04-09T09:22:25.752Z,90.15
2023-04-09T09:23:25.757Z,96.82
2023-04-09T09:24:25.790Z,90.91
2023-04-09T09:25:26.098Z,90.24
2023-04-09T09:26:25.805Z,89.64
2023-04-09T09:27:25.809Z,94.10
2023-04-09T09:28:25.830Z,89.93
2023-04-09T09:29:25.877Z,93.20
2023-04-09T09:30:25.858Z,89.56
2023-04-09T09:31:26.028Z,90.16
2023-04-09T09:32:25.911Z,91.75
2023-04-09T09:33:25.911Z,89.39
2023-04-09T09:34:25.964Z,83.88
2023-04-09T09:35:26.068Z,84.41
2023-04-09T09:36:25.985Z,80.86
2023-04-09T09:37:25.994Z,82.97
2023-04-09T09:38:26.026Z,87.98
2023-04-09T09:39:26.086Z,85.77
2023-04-09T09:40:26.072Z,81.87
2023-04-09T09:41:26.092Z,81.99
2023-04-09T09:42:26.079Z,79.50
2023-04-09T09:43:26.060Z,82.52
2023-04-09T09:44:26.059Z,83.01
2023-04-09T09:45:26.078Z,78.38
2023-04-09T09:46:26.086Z,77.85
2023-04-09T09:47:26.089Z,76.49
2023-04-09T09:48:28.336Z,79.88
2023-04-09T09:49:26.059Z,80.55
2023-04-09T09:50:26.067Z,74.94
2023-04-09T09:51:26.051Z,75.12
2023-04-09T09:52:26.046Z,74.95
2023-04-09T09:53:26.045Z,76.63
2023-04-09T09:54:26.034Z,74.65
2023-04-09T09:55:26.041Z,70.24
2023-04-09T09:56:26.029Z,70.51
2023-04-09T09:57:26.016Z,67.21
2023-04-09T09:58:26.110Z,69.13
2023-04-09T09:59:26.018Z,68.08
2023-04-09T10:00:26.032Z,73.31
2023-04-09T10:01:26.029Z,74.07
2023-04-09T10:02:26.087Z,71.10
2023-04-09T10:03:26.041Z,68.03
2023-04-09T10:04:26.027Z,69.71
2023-04-09T10:05:25.983Z,63.21
2023-04-09T10:06:25.983Z,61.32
2023-04-09T10:07:25.987Z,66.52
2023-04-09T10:08:25.999Z,65.24
2023-04-09T10:09:25.989Z,59.97
2023-04-09T10:10:26.005Z,56.89
2023-04-09T10:11:25.977Z,62.75
2023-04-09T10:12:25.983Z,61.22
2023-04-09T10:13:25.960Z,55.81
2023-04-09T10:14:25.953Z,59.42
2023-04-09T10:15:25.980Z,60.17
2023-04-09T10:16:26.023Z,57.35
2023-04-09T10:17:25.971Z,57.51
2023-04-09T10:18:26.005Z,48.88
2023-04-09T10:19:25.974Z,52.15
2023-04-09T10:20:26.020Z,48.30
2023-04-09T10:21:26.009Z,48.54
2023-04-09T10:22:26.045Z,47.81
2023-04-09T10:23:26.043Z,47.21
2023-04-09T10:24:26.059Z,48.81
2023-04-09T10:25:26.081Z,49.39
2023-04-09T10:26:26.083Z,44.94
2023-04-09T10:27:26.110Z,50.08
2023-04-09T10:28:26.112Z,41.72
2023-04-09T10:29:26.140Z,40.53
2023-04-09T10:30:26.132Z,46.08
2023-04-09T10:31:26.186Z,40.41
2023-04-09T10:32:26.221Z,39.72
2023-04-09T10:33:26.151Z,44.48
2023-04-09T10:34:26.166Z,38.98
2023-04-09T10:35:26.175Z,34.72
2023-04-09T10:36:26.203Z,34.92
2023-04-09T10:37:26.151Z,35.96
2023-04-09T10:38:26.123Z,35.48
2023-04-09T10:39:26.111Z,30.96
2023-04-09T10:40:26.109Z,29.64
2023-04-09T10:41:26.096Z,24.51
2023-04-09T10:42:26.089Z,29.45
2023-04-09T10:43:26.070Z,34.84
2023-04-09T10:44:26.054Z,30.48
2023-04-09T10:45:26.050Z,34.09
2023-04-09T10:46:26.046Z,32.86
2023-04-09T10:47:26.073Z,28.77
2023-04-09T10:48:26.091Z,29.35
2023-04-09T10:49:26.031Z,27.74
2023-04-09T10:50:26.000Z,29.64
2023-04-09T10:51:25.993Z,26.70
2023-04-09T10:52:26.553Z,32.88
2023-04-09T10:53:25.969Z,36.56
2023-04-09T10:54:25.963Z,37.93
2023-04-09T10:55:25.954Z,25.14
2023-04-09T10:56:25.964Z,34.53
2023-04-09T10:57:25.937Z,35.31
2023-04-09T10:58:25.933Z,30.20
2023-04-09T10:59:25.936Z,28.02
2023-04-09T11:00:25.922Z,31.33
2023-04-09T11:01:25.913Z,37.59
2023-04-09T11:02:25.987Z,33.49
2023-04-09T11:03:26.221Z,34.72
2023-04-09T11:04:25.870Z,32.92
2023-04-09T11:05:25.843Z,34.97
2023-04-09T11:06:25.878Z,28.20
2023-04-09T11:07:25.825Z,33.60
2023-04-09T11:08:25.874Z,32.20
2023-04-09T11:09:25.792Z,33.36
2023-04-09T11:10:25.767Z,36.34
2023-04-09T11:11:25.766Z,35.36
2023-04-09T11:12:25.731Z,25.81
2023-04-09T11:13:25.707Z,36.28
2023-04-09T11:14:25.691Z,30.92
2023-04-09T11:15:25.679Z,24.35
2023-04-09T11:16:27.873Z,25.00
2023-04-09T11:17:25.683Z,32.13
2023-04-09T11:18:25.635Z,26.70
2023-04-09T11:19:25.620Z,38.64
2023-04-09T11:20:25.578Z,34.05
2023-04-09T11:21:25.568Z,30.59
2023-04-09T11:22:25.538Z,30.92
2023-04-09T11:23:25.522Z,31.32
2023-04-09T11:24:25.510Z,31.64
2023-04-09T11:25:25.498Z,27.91
2023-04-09T11:26:25.485Z,30.95
2023-04-09T11:27:25.475Z,27.45
2023-04-09T11:28:25.465Z,25.17
2023-04-09T11:29:25.445Z,28.27
2023-04-09T11:30:25.478Z,25.13
2023-04-09T11:31:25.457Z,26.19
2023-04-09T11:32:25.470Z,30.44
2023-04-09T11:33:25.416Z,24.47
2023-04-09T11:34:25.389Z,25.00
2023-04-09T11:35:25.500Z,34.94
2023-04-09T11:36:25.356Z,33.20
2023-04-09T11:37:25.334Z,28.63
2023-04-09T11:38:25.320Z,29.83
2023-04-09T11:39:25.313Z,29.53
2023-04-09T11:40:25.288Z,26.05
2023-04-09T11:41:25.281Z,26.63
2023-04-09T11:42:25.267Z,29.80
2023-04-09T11:43:25.251Z,31.40
2023-04-09T11:44:25.240Z,27.69
2023-04-09T11:45:25.247Z,31.08
2023-04-09T11:46:25.229Z,27.87
2023-04-09T11:47:25.240Z,25.00
2023-04-09T11:48:25.264Z,28.80
2023-04-09T11:49:25.188Z,30.72
2023-04-09T11:50:25.229Z,30.83
2023-04-09T11:51:25.180Z,29.98
2023-04-09T11:52:25.154Z,26.73
2023-04-09T11:53:25.149Z,26.92
2023-04-09T11:54:25.132Z,25.88
2023-04-09T11:55:25.121Z,31.68
2023-04-09T11:56:25.120Z,26.83
2023-04-09T11:57:25.104Z,26.87
2023-04-09T11:58:25.068Z,30.28
2023-04-09T11:59:25.061Z,28.62
2023-04-09T12:00:25.184Z,31.99
2023-04-09T12:01:25.029Z,27.99
2023-04-09T12:02:25.292Z,34.26
2023-04-09T12:03:25.261Z,32.23
2023-04-09T12:04:25.224Z,31.95
2023-04-09T12:05:25.210Z,28.51
2023-04-09T12:06:25.254Z,31.44
2023-04-09T12:07:25.306Z,28.26
2023-04-09T12:08:25.351Z,31.73
2023-04-09T12:09:25.390Z,28.93
2023-04-09T12:10:25.457Z,29.59
2023-04-09T12:11:25.503Z,27.59
2023-04-09T12:12:25.568Z,32.15
2023-04-09T12:13:25.590Z,39.49
2023-04-09T12:14:25.637Z,36.29
2023-04-09T12:15:25.672Z,38.96
2023-04-09T12:16:25.789Z,36.98
2023-04-09T12:17:25.804Z,34.95
2023-04-09T12:18:25.810Z,31.10
2023-04-09T12:19:25.881Z,35.23
2023-04-09T12:20:25.872Z,28.58
2023-04-09T12:21:25.920Z,29.11
2023-04-09T12:22:25.930Z,33.75
2023-04-09T12:23:25.961Z,32.96
2023-04-09T12:24:25.990Z,28.68
2023-04-09T12:25:25.971Z,34.80
2023-04-09T12:26:25.999Z,30.22
2023-04-09T12:27:26.057Z,28.02
2023-04-09T12:28:26.121Z,31.39
2023-04-09T12:29:26.163Z,40.59
2023-04-09T12:30:26.224Z,33.34
2023-04-09T12:31:26.305Z,36.95
2023-04-09T12:32:26.326Z,34.86
2023-04-09T12:33:26.339Z,35.34
2023-04-09T12:34:26.318Z,35.20